MAPA DE AEROPUERTO

INFORMACIÓN METAR y TAF

METAR FOR LEZL
ADDS - METARS form results

(0912 UTC 22 October 2020)
Data provider http://aviationweather.gov/metar/data/
 
METAR text: LEZL 220900Z 00000KT 9999 FEW009 BKN012 17/16 Q1014 NOSIG
Conditions at: LEZL (SEVILLA (CIV/MIL, ES) observed 0900 UTC 22 October 2020
Temperature: 17.0°C (63°F)
Dewpoint: 16.0°C (61°F) [RH = 94%]
Pressure (altimeter): 29.94 inches Hg (1014.0 mb)
Winds: calm
Visibility: 6 or more miles (10+ km)
Ceiling: 1200 feet AGL
Clouds: few clouds at 900 feet AGL
broken clouds at 1200 feet AGL
Weather: no significant weather observed at this time

METAR text: LEZL 220830Z 00000KT 9999 SCT008 BKN011 17/15 Q1013 NOSIG
Conditions at: LEZL (SEVILLA (CIV/MIL, ES) observed 0830 UTC 22 October 2020
Temperature: 17.0°C (63°F)
Dewpoint: 15.0°C (59°F) [RH = 88%]
Pressure (altimeter): 29.91 inches Hg (1013.0 mb)
Winds: calm
Visibility: 6 or more miles (10+ km)
Ceiling: 1100 feet AGL
Clouds: scattered clouds at 800 feet AGL
broken clouds at 1100 feet AGL
Weather: no significant weather observed at this time

Forecast for: LEZL (SEVILLA (CIV/MIL, ES)
Text: TAF LEZL 220800Z 2209/2309 15004KT 9999 SCT030 TX21/2215Z TN11/2306Z
Forecast period: 0900 to 1200 UTC 22 October 2020
Forecast type: FROM: standard forecast or significant change
Winds: from the SSE (150 degrees) at 5 MPH (4 knots; 2.1 m/s)
Visibility: 6 or more miles (10+ km)
Ceiling: at least 12,000 feet AGL
Clouds: scattered clouds at 3000 feet AGL
Weather: no significant weather forecast for this period
Text: TEMPO 2209/2218 4000 SHRA BKN014 SCT020TCU
Forecast period: 0900 to 1800 UTC 22 October 2020
Forecast type: TEMPORARY: The following changes expected for less than half the time period
Visibility: 2.49 miles (4.01 km)
Ceiling: 1400 feet AGL
Clouds: broken clouds at 1400 feet AGL
scattered clouds at 2000 feet AGL
Weather: SHRA  (rain showers)
Text: BECMG 2212/2214 23010KT
Forecast period: 1200 to 2200 UTC 22 October 2020
Forecast type: BECOMING: Conditions expected to become as follows by 1400 UTC 22 October 2020
Winds: from the SW (230 degrees) at 12 MPH (10 knots; 5.1 m/s)
Visibility: 6 or more miles (10+ km)
Ceiling: at least 12,000 feet AGL
Clouds: scattered clouds at 3000 feet AGL
Weather: no significant weather forecast for this period
Text: BECMG 2222/2301 VRB02KT
Forecast period: 2200 UTC 22 October 2020 to 0900 UTC 23 October 2020
Forecast type: BECOMING: Conditions expected to become as follows by 0100 UTC 23 October 2020
Winds: variable direction winds at 2 MPH (2 knots; 1.0 m/s)
Visibility: 6 or more miles (10+ km)
Ceiling: at least 12,000 feet AGL
Clouds: scattered clouds at 3000 feet AGL
Weather: no significant weather forecast for this period
Text: PROB40
Forecast period: 0000 to 0900 UTC 23 October 2020
Forecast type: TEMPORARY: The following changes expected for less than half the time period
Visibility: 1.86 miles (2.99 km)
Ceiling: 1000 feet AGL
Clouds: broken clouds at 1000 feet AGL
Weather: BR  (mist)